createdAt,value
2017-08-25T00:00:07.704Z,992.32
2017-08-25T00:01:07.639Z,992.37
2017-08-25T00:02:07.641Z,992.35
2017-08-25T00:03:07.644Z,992.37
2017-08-25T00:04:07.644Z,992.37
2017-08-25T00:05:07.763Z,992.39
2017-08-25T00:06:07.651Z,992.39
2017-08-25T00:07:07.653Z,992.4
2017-08-25T00:08:07.654Z,992.4
2017-08-25T00:09:07.657Z,992.43
2017-08-25T00:10:07.670Z,992.45
2017-08-25T00:11:07.664Z,992.47
2017-08-25T00:12:07.664Z,992.44
2017-08-25T00:13:07.666Z,992.44
2017-08-25T00:14:07.669Z,992.44
2017-08-25T00:15:07.742Z,992.46
2017-08-25T00:16:07.674Z,992.47
2017-08-25T00:17:07.679Z,992.43
2017-08-25T00:18:07.679Z,992.43
2017-08-25T00:19:07.679Z,992.46
2017-08-25T00:20:07.683Z,992.45
2017-08-25T00:21:07.685Z,992.4
2017-08-25T00:22:07.688Z,992.37
2017-08-25T00:23:07.691Z,992.43
2017-08-25T00:24:07.693Z,992.39
2017-08-25T00:25:07.769Z,992.44
2017-08-25T00:26:07.698Z,992.44
2017-08-25T00:27:07.699Z,992.46
2017-08-25T00:28:07.702Z,992.48
2017-08-25T00:29:07.705Z,992.47
2017-08-25T00:30:07.709Z,992.49
2017-08-25T00:31:07.711Z,992.47
2017-08-25T00:32:07.711Z,992.45
2017-08-25T00:33:07.718Z,992.41
2017-08-25T00:34:07.717Z,992.47
2017-08-25T00:35:07.790Z,992.44
2017-08-25T00:36:07.721Z,992.45
2017-08-25T00:37:07.722Z,992.47
2017-08-25T00:38:07.725Z,992.5
2017-08-25T00:39:07.728Z,992.51
2017-08-25T00:40:07.730Z,992.48
2017-08-25T00:41:07.732Z,992.5
2017-08-25T00:42:07.736Z,992.5
2017-08-25T00:43:07.737Z,992.5
2017-08-25T00:44:07.739Z,992.48
2017-08-25T00:45:08.707Z,992.48
2017-08-25T00:46:07.744Z,992.45
2017-08-25T00:47:07.747Z,992.51
2017-08-25T00:48:07.750Z,992.53
2017-08-25T00:49:07.753Z,992.51
2017-08-25T00:50:07.822Z,992.52
2017-08-25T00:51:07.756Z,992.53
2017-08-25T00:52:07.758Z,992.48
2017-08-25T00:53:07.760Z,992.55
2017-08-25T00:54:07.763Z,992.55
2017-08-25T00:55:07.827Z,992.6
2017-08-25T00:56:07.768Z,992.61
2017-08-25T00:57:07.773Z,992.63
2017-08-25T00:58:07.774Z,992.64
2017-08-25T00:59:07.774Z,992.66
2017-08-25T01:00:07.923Z,992.65
2017-08-25T01:01:07.781Z,992.6
2017-08-25T01:02:07.785Z,992.58
2017-08-25T01:03:07.785Z,992.59
2017-08-25T01:04:07.787Z,992.58
2017-08-25T01:05:07.887Z,992.54
2017-08-25T01:06:07.791Z,992.54
2017-08-25T01:07:07.794Z,992.54
2017-08-25T01:08:07.797Z,992.54
2017-08-25T01:09:07.798Z,992.49
2017-08-25T01:10:07.815Z,992.48
2017-08-25T01:11:07.803Z,992.52
2017-08-25T01:12:07.814Z,992.52
2017-08-25T01:13:07.811Z,992.54
2017-08-25T01:14:07.810Z,992.55
2017-08-25T01:15:07.814Z,992.56
2017-08-25T01:16:07.816Z,992.58
2017-08-25T01:17:07.818Z,992.58
2017-08-25T01:18:07.845Z,992.6
2017-08-25T01:19:07.825Z,992.65
2017-08-25T01:20:07.825Z,992.64
2017-08-25T01:21:07.828Z,992.63
2017-08-25T01:22:07.839Z,992.64
2017-08-25T01:23:07.841Z,992.6
2017-08-25T01:24:07.843Z,992.61
2017-08-25T01:25:07.902Z,992.59
2017-08-25T01:26:07.842Z,992.58
2017-08-25T01:27:07.842Z,992.56
2017-08-25T01:28:07.845Z,992.51
2017-08-25T01:29:07.848Z,992.49
2017-08-25T01:30:07.941Z,992.45
2017-08-25T01:31:07.853Z,992.4
2017-08-25T01:32:07.854Z,992.41
2017-08-25T01:33:07.859Z,992.38
2017-08-25T01:34:07.859Z,992.46
2017-08-25T01:35:08.033Z,992.48
2017-08-25T01:36:07.864Z,992.48
2017-08-25T01:37:07.866Z,992.49
2017-08-25T01:38:07.869Z,992.46
2017-08-25T01:39:07.890Z,992.44
2017-08-25T01:40:08.055Z,992.45
2017-08-25T01:41:07.876Z,992.47
2017-08-25T01:42:07.877Z,992.45
2017-08-25T01:43:07.879Z,992.52
2017-08-25T01:44:07.882Z,992.51
2017-08-25T01:45:07.964Z,992.52
2017-08-25T01:46:11.141Z,992.48
2017-08-25T01:47:07.889Z,992.48
2017-08-25T01:48:07.891Z,992.45
2017-08-25T01:49:07.893Z,992.47
2017-08-25T01:50:07.895Z,992.49
2017-08-25T01:51:07.898Z,992.47
2017-08-25T01:52:07.902Z,992.51
2017-08-25T01:53:07.905Z,992.51
2017-08-25T01:54:07.904Z,992.52
2017-08-25T01:55:08.131Z,992.53
2017-08-25T01:56:07.910Z,992.55
2017-08-25T01:57:07.912Z,992.53
2017-08-25T01:58:07.914Z,992.54
2017-08-25T01:59:07.916Z,992.51
2017-08-25T02:00:07.921Z,992.49
2017-08-25T02:01:07.921Z,992.47
2017-08-25T02:02:07.923Z,992.5
2017-08-25T02:03:07.926Z,992.46
2017-08-25T02:04:07.929Z,992.46
2017-08-25T02:05:07.930Z,992.46
2017-08-25T02:06:07.933Z,992.42
2017-08-25T02:07:07.938Z,992.4
2017-08-25T02:08:07.942Z,992.41
2017-08-25T02:09:07.947Z,992.39
2017-08-25T02:10:08.121Z,992.35
2017-08-25T02:11:07.946Z,992.36
2017-08-25T02:12:07.949Z,992.36
2017-08-25T02:13:07.951Z,992.37
2017-08-25T02:14:07.954Z,992.35
2017-08-25T02:15:08.055Z,992.38
2017-08-25T02:16:07.958Z,992.38
2017-08-25T02:17:07.961Z,992.36
2017-08-25T02:18:07.964Z,992.34
2017-08-25T02:19:07.966Z,992.38
2017-08-25T02:20:08.028Z,992.38
2017-08-25T02:21:07.971Z,992.37
2017-08-25T02:22:07.973Z,992.39
2017-08-25T02:23:07.981Z,992.36
2017-08-25T02:24:07.983Z,992.35
2017-08-25T02:25:08.079Z,992.33
2017-08-25T02:26:07.983Z,992.31
2017-08-25T02:27:07.984Z,992.32
2017-08-25T02:28:07.988Z,992.29
2017-08-25T02:29:07.989Z,992.33
2017-08-25T02:30:07.992Z,992.36
2017-08-25T02:31:07.994Z,992.34
2017-08-25T02:32:07.998Z,992.35
2017-08-25T02:33:07.998Z,992.34
2017-08-25T02:34:08.001Z,992.34
2017-08-25T02:35:08.179Z,992.31
2017-08-25T02:36:08.009Z,992.28
2017-08-25T02:37:08.007Z,992.28
2017-08-25T02:38:08.009Z,992.27
2017-08-25T02:39:08.010Z,992.3
2017-08-25T02:40:08.093Z,992.28
2017-08-25T02:41:08.013Z,992.26
2017-08-25T02:42:08.018Z,992.23
2017-08-25T02:43:08.018Z,992.22
2017-08-25T02:44:08.021Z,992.2
2017-08-25T02:45:08.126Z,992.19
2017-08-25T02:46:08.025Z,992.12
2017-08-25T02:47:08.026Z,992.12
2017-08-25T02:48:08.029Z,992.06
2017-08-25T02:49:08.030Z,992.02
2017-08-25T02:50:08.223Z,992.01
2017-08-25T02:51:08.034Z,992
2017-08-25T02:52:08.036Z,992.02
2017-08-25T02:53:08.038Z,992.03
2017-08-25T02:54:08.041Z,992.05
2017-08-25T02:55:08.243Z,992.12
2017-08-25T02:56:08.044Z,992.14
2017-08-25T02:57:08.053Z,992.15
2017-08-25T02:58:08.056Z,992.17
2017-08-25T02:59:08.054Z,992.22
2017-08-25T03:00:08.257Z,992.19
2017-08-25T03:01:08.057Z,992.22
2017-08-25T03:02:08.058Z,992.24
2017-08-25T03:03:08.059Z,992.23
2017-08-25T03:04:08.061Z,992.21
2017-08-25T03:05:08.129Z,992.21
2017-08-25T03:06:08.067Z,992.17
2017-08-25T03:07:08.068Z,992.15
2017-08-25T03:08:08.070Z,992.13
2017-08-25T03:09:08.073Z,992.13
2017-08-25T03:10:08.152Z,992.13
2017-08-25T03:11:08.077Z,992.17
2017-08-25T03:12:08.079Z,992.11
2017-08-25T03:13:08.081Z,992.12
2017-08-25T03:14:08.083Z,992.09
2017-08-25T03:15:08.156Z,992.03
2017-08-25T03:16:08.087Z,992.07
2017-08-25T03:17:08.891Z,992.03
2017-08-25T03:18:08.092Z,992.03
2017-08-25T03:19:08.094Z,992.05
2017-08-25T03:20:08.280Z,992.02
2017-08-25T03:21:08.097Z,992.03
2017-08-25T03:22:08.100Z,992.06
2017-08-25T03:23:08.102Z,992.11
2017-08-25T03:24:08.146Z,992.06
2017-08-25T03:25:08.182Z,992.08
2017-08-25T03:26:08.117Z,992.11
2017-08-25T03:27:08.116Z,992.11
2017-08-25T03:28:08.133Z,992.13
2017-08-25T03:29:08.118Z,992.13
2017-08-25T03:30:08.367Z,992.16
2017-08-25T03:31:08.126Z,992.23
2017-08-25T03:32:08.120Z,992.25
2017-08-25T03:33:08.123Z,992.3
2017-08-25T03:34:08.122Z,992.33
2017-08-25T03:35:08.307Z,992.37
2017-08-25T03:36:08.126Z,992.39
2017-08-25T03:37:08.128Z,992.38
2017-08-25T03:38:08.133Z,992.32
2017-08-25T03:39:08.138Z,992.38
2017-08-25T03:40:08.332Z,992.35
2017-08-25T03:41:08.137Z,992.36
2017-08-25T03:42:08.141Z,992.35
2017-08-25T03:43:08.140Z,992.39
2017-08-25T03:44:08.143Z,992.38
2017-08-25T03:45:08.311Z,992.42
2017-08-25T03:46:08.144Z,992.44
2017-08-25T03:47:08.145Z,992.45
2017-08-25T03:48:08.148Z,992.5
2017-08-25T03:49:08.150Z,992.49
2017-08-25T03:50:08.336Z,992.55
2017-08-25T03:51:08.152Z,992.58
2017-08-25T03:52:08.156Z,992.55
2017-08-25T03:53:08.156Z,992.54
2017-08-25T03:54:08.157Z,992.46
2017-08-25T03:55:08.276Z,992.5
2017-08-25T03:56:08.161Z,992.46
2017-08-25T03:57:08.166Z,992.5
2017-08-25T03:58:08.163Z,992.45
2017-08-25T03:59:08.165Z,992.48
2017-08-25T04:00:08.291Z,992.47
2017-08-25T04:01:08.168Z,992.54
2017-08-25T04:02:08.168Z,992.53
2017-08-25T04:03:08.222Z,992.54
2017-08-25T04:04:08.172Z,992.57
2017-08-25T04:05:08.383Z,992.55
2017-08-25T04:06:08.173Z,992.59
2017-08-25T04:07:08.179Z,992.54
2017-08-25T04:08:08.176Z,992.54
2017-08-25T04:09:08.179Z,992.51
2017-08-25T04:10:08.375Z,992.52
2017-08-25T04:11:08.183Z,992.56
2017-08-25T04:12:08.194Z,992.58
2017-08-25T04:13:08.184Z,992.63
2017-08-25T04:14:08.200Z,992.62
2017-08-25T04:15:08.276Z,992.59
2017-08-25T04:16:08.196Z,992.64
2017-08-25T04:17:08.206Z,992.63
2017-08-25T04:18:09.299Z,992.62
2017-08-25T04:19:08.196Z,992.68
2017-08-25T04:20:08.335Z,992.72
2017-08-25T04:21:08.199Z,992.74
2017-08-25T04:22:08.197Z,992.72
2017-08-25T04:23:08.200Z,992.69
2017-08-25T04:24:08.202Z,992.7
2017-08-25T04:25:08.359Z,992.7
2017-08-25T04:26:08.209Z,992.67
2017-08-25T04:27:08.206Z,992.66
2017-08-25T04:28:08.205Z,992.69
2017-08-25T04:29:08.217Z,992.66
2017-08-25T04:30:08.338Z,992.65
2017-08-25T04:31:08.215Z,992.61
2017-08-25T04:32:08.219Z,992.65
2017-08-25T04:33:08.217Z,992.63
2017-08-25T04:34:08.216Z,992.56
2017-08-25T04:35:08.420Z,992.52
2017-08-25T04:36:08.217Z,992.55
2017-08-25T04:37:08.218Z,992.54
2017-08-25T04:38:08.218Z,992.57
2017-08-25T04:39:08.221Z,992.61
2017-08-25T04:40:08.439Z,992.58
2017-08-25T04:41:08.222Z,992.57
2017-08-25T04:42:08.222Z,992.62
2017-08-25T04:43:08.223Z,992.63
2017-08-25T04:44:08.225Z,992.62
2017-08-25T04:45:08.380Z,992.59
2017-08-25T04:46:08.227Z,992.66
2017-08-25T04:47:08.231Z,992.64
2017-08-25T04:48:08.230Z,992.64
2017-08-25T04:49:08.232Z,992.65
2017-08-25T04:50:08.353Z,992.64
2017-08-25T04:51:08.234Z,992.64
2017-08-25T04:52:08.237Z,992.63
2017-08-25T04:53:08.246Z,992.62
2017-08-25T04:54:08.238Z,992.62
2017-08-25T04:55:08.318Z,992.58
2017-08-25T04:56:08.241Z,992.62
2017-08-25T04:57:08.242Z,992.58
2017-08-25T04:58:08.244Z,992.59
2017-08-25T04:59:08.245Z,992.59
2017-08-25T05:00:08.499Z,992.56
2017-08-25T05:01:08.248Z,992.58
2017-08-25T05:02:08.250Z,992.56
2017-08-25T05:03:08.251Z,992.53
2017-08-25T05:04:08.253Z,992.58
2017-08-25T05:05:08.459Z,992.6
2017-08-25T05:06:08.257Z,992.65
2017-08-25T05:07:08.259Z,992.64
2017-08-25T05:08:08.260Z,992.67
2017-08-25T05:09:08.261Z,992.63
2017-08-25T05:10:08.450Z,992.64
2017-08-25T05:11:08.265Z,992.64
2017-08-25T05:12:08.267Z,992.62
2017-08-25T05:13:08.270Z,992.62
2017-08-25T05:14:08.273Z,992.66
2017-08-25T05:15:08.468Z,992.63
2017-08-25T05:16:08.277Z,992.63
2017-08-25T05:17:08.279Z,992.59
2017-08-25T05:18:08.288Z,992.63
2017-08-25T05:19:08.286Z,992.57
2017-08-25T05:20:08.466Z,992.62
2017-08-25T05:21:08.290Z,992.63
2017-08-25T05:22:08.291Z,992.62
2017-08-25T05:23:08.293Z,992.64
2017-08-25T05:24:08.296Z,992.63
2017-08-25T05:25:08.528Z,992.61
2017-08-25T05:26:08.300Z,992.63
2017-08-25T05:27:08.302Z,992.6
2017-08-25T05:28:08.304Z,992.69
2017-08-25T05:29:08.313Z,992.65
2017-08-25T05:30:08.435Z,992.67
2017-08-25T05:31:08.311Z,992.63
2017-08-25T05:32:08.313Z,992.65
2017-08-25T05:33:08.315Z,992.61
2017-08-25T05:34:08.318Z,992.66
2017-08-25T05:35:08.448Z,992.62
2017-08-25T05:36:08.322Z,992.68
2017-08-25T05:37:08.324Z,992.68
2017-08-25T05:38:08.326Z,992.73
2017-08-25T05:39:08.329Z,992.7
2017-08-25T05:40:08.580Z,992.74
2017-08-25T05:41:08.333Z,992.67
2017-08-25T05:42:08.335Z,992.71
2017-08-25T05:43:08.338Z,992.7
2017-08-25T05:44:08.341Z,992.71
2017-08-25T05:45:08.610Z,992.75
2017-08-25T05:46:08.344Z,992.74
2017-08-25T05:47:08.347Z,992.75
2017-08-25T05:48:08.349Z,992.75
2017-08-25T05:49:09.153Z,992.75
2017-08-25T05:50:08.644Z,992.77
2017-08-25T05:51:08.358Z,992.76
2017-08-25T05:52:08.361Z,992.79
2017-08-25T05:53:08.367Z,992.83
2017-08-25T05:54:08.364Z,992.81
2017-08-25T05:55:08.686Z,992.83
2017-08-25T05:56:08.369Z,992.85
2017-08-25T05:57:08.372Z,992.88
2017-08-25T05:58:08.375Z,992.91
2017-08-25T05:59:08.377Z,992.91
2017-08-25T06:00:08.621Z,992.87
2017-08-25T06:01:08.384Z,992.83
2017-08-25T06:02:08.385Z,992.86
2017-08-25T06:03:08.388Z,992.83
2017-08-25T06:04:08.392Z,992.82
2017-08-25T06:05:08.611Z,992.81
2017-08-25T06:06:08.396Z,992.84
2017-08-25T06:07:08.401Z,992.92
2017-08-25T06:08:08.404Z,992.92
2017-08-25T06:09:08.408Z,992.95
2017-08-25T06:10:08.606Z,993
2017-08-25T06:11:08.413Z,993
2017-08-25T06:12:08.417Z,993.02
2017-08-25T06:13:08.419Z,993.03
2017-08-25T06:14:08.428Z,993.06
2017-08-25T06:15:08.665Z,993.06
2017-08-25T06:16:08.428Z,993.05
2017-08-25T06:17:08.432Z,993.02
2017-08-25T06:18:08.434Z,993.01
2017-08-25T06:19:08.437Z,993.04
2017-08-25T06:20:08.624Z,993.09
2017-08-25T06:21:08.444Z,993.11
2017-08-25T06:22:08.447Z,993.08
2017-08-25T06:23:08.451Z,993.08
2017-08-25T06:24:08.452Z,993.05
2017-08-25T06:25:08.457Z,993.02
2017-08-25T06:26:08.460Z,993.06
2017-08-25T06:27:08.464Z,993.06
2017-08-25T06:28:08.470Z,993.07
2017-08-25T06:29:08.471Z,993.06
2017-08-25T06:30:08.718Z,993.02
2017-08-25T06:31:08.480Z,993.05
2017-08-25T06:32:08.484Z,993.09
2017-08-25T06:33:08.488Z,993.04
2017-08-25T06:34:08.493Z,993.03
2017-08-25T06:35:08.775Z,993.04
2017-08-25T06:36:08.502Z,993.08
2017-08-25T06:37:08.508Z,993.03
2017-08-25T06:38:08.512Z,993.06
2017-08-25T06:39:08.517Z,993.05
2017-08-25T06:40:08.779Z,993.03
2017-08-25T06:41:08.528Z,992.99
2017-08-25T06:42:08.533Z,993.04
2017-08-25T06:43:08.541Z,993.03
2017-08-25T06:44:08.544Z,993.08
2017-08-25T06:45:08.801Z,993.09
2017-08-25T06:46:08.562Z,993.02
2017-08-25T06:47:08.561Z,993.05
2017-08-25T06:48:08.565Z,993.09
2017-08-25T06:49:08.572Z,993.02
2017-08-25T06:50:08.816Z,993.06
2017-08-25T06:51:08.583Z,993.12
2017-08-25T06:52:08.588Z,993.13
2017-08-25T06:53:08.596Z,993.13
2017-08-25T06:54:08.602Z,993.09
2017-08-25T06:55:08.948Z,993.16
2017-08-25T06:56:08.616Z,993.19
2017-08-25T06:57:08.620Z,993.16
2017-08-25T06:58:08.626Z,993.15
2017-08-25T06:59:08.639Z,993.19
2017-08-25T07:00:09.253Z,993.16
2017-08-25T07:01:08.647Z,993.13
2017-08-25T07:02:08.658Z,993.11
2017-08-25T07:03:08.657Z,993.07
2017-08-25T07:04:08.664Z,993.05
2017-08-25T07:05:09.710Z,993.03
2017-08-25T07:06:08.677Z,993.05
2017-08-25T07:07:08.684Z,993
2017-08-25T07:08:08.691Z,993.07
2017-08-25T07:09:08.695Z,993.05
2017-08-25T07:10:12.240Z,993.09
2017-08-25T07:11:08.708Z,993.02
2017-08-25T07:12:08.722Z,993.05
2017-08-25T07:13:08.721Z,993.04
2017-08-25T07:14:08.733Z,993.09
2017-08-25T07:15:09.067Z,993.09
2017-08-25T07:16:08.735Z,993.14
2017-08-25T07:17:08.744Z,993.16
2017-08-25T07:18:08.747Z,993.11
2017-08-25T07:19:08.750Z,993.05
2017-08-25T07:20:09.110Z,993.13
2017-08-25T07:21:08.762Z,993.08
2017-08-25T07:22:08.768Z,993.01
2017-08-25T07:23:08.771Z,993.08
2017-08-25T07:24:08.778Z,993.05
2017-08-25T07:25:09.082Z,993.05
2017-08-25T07:26:08.799Z,993.05
2017-08-25T07:27:08.794Z,993.04
2017-08-25T07:28:08.801Z,993.06
2017-08-25T07:29:08.807Z,993.08
2017-08-25T07:30:09.166Z,993.05
2017-08-25T07:31:08.817Z,993.07
2017-08-25T07:32:08.823Z,993.02
2017-08-25T07:33:08.829Z,993.04
2017-08-25T07:34:08.833Z,993.06
2017-08-25T07:35:09.245Z,993.04
2017-08-25T07:36:08.845Z,993.05
2017-08-25T07:37:08.849Z,993.05
2017-08-25T07:38:08.863Z,993.08
2017-08-25T07:39:08.861Z,993.11
2017-08-25T07:40:09.229Z,993.05
2017-08-25T07:41:08.871Z,993.07
2017-08-25T07:42:08.877Z,993.08
2017-08-25T07:43:08.883Z,993.08
2017-08-25T07:44:08.889Z,993.07
2017-08-25T07:45:09.257Z,993.03
2017-08-25T07:46:08.901Z,993
2017-08-25T07:47:08.907Z,993
2017-08-25T07:48:08.912Z,993.01
2017-08-25T07:49:08.918Z,993.12
2017-08-25T07:50:09.276Z,993.11
2017-08-25T07:51:08.930Z,993.09
2017-08-25T07:52:08.935Z,993.05
2017-08-25T07:53:08.946Z,993.03
2017-08-25T07:54:08.948Z,993.03
2017-08-25T07:55:09.319Z,993.04
2017-08-25T07:56:08.960Z,993.03
2017-08-25T07:57:08.966Z,993.06
2017-08-25T07:58:08.978Z,993.06
2017-08-25T07:59:08.979Z,993
2017-08-25T08:00:09.369Z,992.98
2017-08-25T08:01:08.993Z,992.97
2017-08-25T08:02:09.008Z,992.98
2017-08-25T08:03:09.010Z,992.94
2017-08-25T08:04:09.014Z,992.95
2017-08-25T08:05:09.376Z,992.95
2017-08-25T08:06:09.030Z,993
2017-08-25T08:07:09.035Z,993.02
2017-08-25T08:08:09.042Z,993.02
2017-08-25T08:09:09.057Z,992.99
2017-08-25T08:10:09.474Z,992.96
2017-08-25T08:11:09.064Z,992.91
2017-08-25T08:12:09.073Z,992.9
2017-08-25T08:13:09.080Z,992.92
2017-08-25T08:14:09.096Z,992.85
2017-08-25T08:15:09.462Z,992.87
2017-08-25T08:16:09.106Z,992.94
2017-08-25T08:17:09.112Z,992.94
2017-08-25T08:18:09.120Z,992.91
2017-08-25T08:19:09.128Z,992.91
2017-08-25T08:20:09.563Z,992.93
2017-08-25T08:21:15.958Z,992.92
2017-08-25T08:22:09.152Z,992.9
2017-08-25T08:23:09.159Z,992.9
2017-08-25T08:24:09.169Z,992.9
2017-08-25T08:25:09.582Z,992.93
2017-08-25T08:26:09.186Z,992.91
2017-08-25T08:27:09.194Z,992.91
2017-08-25T08:28:09.202Z,992.91
2017-08-25T08:29:09.211Z,992.92
2017-08-25T08:30:09.643Z,992.94
2017-08-25T08:31:09.228Z,992.89
2017-08-25T08:32:09.236Z,992.94
2017-08-25T08:33:09.244Z,992.92
2017-08-25T08:34:09.254Z,992.9
2017-08-25T08:35:09.668Z,992.91
2017-08-25T08:36:09.270Z,992.87
2017-08-25T08:37:09.280Z,992.91
2017-08-25T08:38:09.287Z,992.89
2017-08-25T08:39:09.296Z,992.91
2017-08-25T08:40:09.719Z,992.91
2017-08-25T08:41:09.319Z,992.91
2017-08-25T08:42:09.321Z,992.96
2017-08-25T08:43:09.331Z,992.88
2017-08-25T08:44:09.337Z,992.9
2017-08-25T08:45:09.763Z,992.82
2017-08-25T08:46:09.354Z,992.85
2017-08-25T08:47:09.360Z,992.81
2017-08-25T08:48:09.369Z,992.79
2017-08-25T08:49:09.378Z,992.82
2017-08-25T08:50:09.804Z,992.76
2017-08-25T08:51:09.405Z,992.78
2017-08-25T08:52:09.404Z,992.76
2017-08-25T08:53:09.410Z,992.78
2017-08-25T08:54:09.414Z,992.78
2017-08-25T08:55:09.844Z,992.77
2017-08-25T08:56:09.429Z,992.8
2017-08-25T08:57:09.436Z,992.73
2017-08-25T08:58:09.442Z,992.73
2017-08-25T08:59:09.449Z,992.74
2017-08-25T09:00:09.902Z,992.78
2017-08-25T09:01:09.469Z,992.78
2017-08-25T09:02:09.470Z,992.76
2017-08-25T09:03:09.493Z,992.76
2017-08-25T09:04:09.482Z,992.77
2017-08-25T09:05:09.925Z,992.75
2017-08-25T09:06:09.494Z,992.71
2017-08-25T09:07:09.503Z,992.73
2017-08-25T09:08:09.508Z,992.71
2017-08-25T09:09:09.512Z,992.71
2017-08-25T09:10:09.936Z,992.7
2017-08-25T09:11:09.527Z,992.73
2017-08-25T09:12:09.540Z,992.69
2017-08-25T09:13:09.538Z,992.72
2017-08-25T09:14:09.542Z,992.73
2017-08-25T09:15:09.977Z,992.71
2017-08-25T09:16:09.555Z,992.7
2017-08-25T09:17:09.562Z,992.69
2017-08-25T09:18:09.567Z,992.7
2017-08-25T09:19:09.576Z,992.68
2017-08-25T09:20:09.990Z,992.71
2017-08-25T09:21:09.585Z,992.69
2017-08-25T09:22:13.897Z,992.74
2017-08-25T09:23:09.596Z,992.65
2017-08-25T09:24:09.603Z,992.66
2017-08-25T09:25:10.047Z,992.69
2017-08-25T09:26:09.618Z,992.74
2017-08-25T09:27:09.621Z,992.71
2017-08-25T09:28:09.626Z,992.68
2017-08-25T09:29:09.632Z,992.68
2017-08-25T09:30:10.070Z,992.68
2017-08-25T09:31:09.643Z,992.65
2017-08-25T09:32:09.652Z,992.66
2017-08-25T09:33:09.658Z,992.69
2017-08-25T09:34:09.662Z,992.66
2017-08-25T09:35:10.182Z,992.67
2017-08-25T09:36:09.676Z,992.67
2017-08-25T09:37:09.682Z,992.69
2017-08-25T09:38:09.686Z,992.69
2017-08-25T09:39:09.692Z,992.68
2017-08-25T09:40:10.259Z,992.71
2017-08-25T09:41:09.707Z,992.74
2017-08-25T09:42:09.721Z,992.72
2017-08-25T09:43:09.718Z,992.7
2017-08-25T09:44:09.722Z,992.69
2017-08-25T09:45:10.174Z,992.69
2017-08-25T09:46:09.734Z,992.65
2017-08-25T09:47:09.740Z,992.59
2017-08-25T09:48:09.750Z,992.6
2017-08-25T09:49:09.754Z,992.56
2017-08-25T09:50:10.194Z,992.58
2017-08-25T09:51:09.765Z,992.54
2017-08-25T09:52:09.770Z,992.49
2017-08-25T09:53:09.780Z,992.46
2017-08-25T09:54:09.783Z,992.49
2017-08-25T09:55:10.223Z,992.47
2017-08-25T09:56:09.794Z,992.49
2017-08-25T09:57:09.800Z,992.44
2017-08-25T09:58:09.815Z,992.43
2017-08-25T09:59:09.814Z,992.4
2017-08-25T10:00:10.305Z,992.38
2017-08-25T10:01:09.828Z,992.35
2017-08-25T10:02:09.832Z,992.39
2017-08-25T10:03:09.837Z,992.34
2017-08-25T10:04:09.845Z,992.37
2017-08-25T10:05:10.246Z,992.35
2017-08-25T10:06:09.856Z,992.32
2017-08-25T10:07:09.862Z,992.31
2017-08-25T10:08:09.873Z,992.31
2017-08-25T10:09:09.874Z,992.34
2017-08-25T10:10:10.239Z,992.32
2017-08-25T10:11:09.891Z,992.32
2017-08-25T10:12:09.894Z,992.26
2017-08-25T10:13:09.900Z,992.29
2017-08-25T10:14:09.905Z,992.23
2017-08-25T10:15:10.326Z,992.25
2017-08-25T10:16:09.923Z,992.24
2017-08-25T10:17:09.924Z,992.25
2017-08-25T10:18:09.931Z,992.23
2017-08-25T10:19:09.936Z,992.26
2017-08-25T10:20:10.382Z,992.25
2017-08-25T10:21:09.953Z,992.25
2017-08-25T10:22:09.955Z,992.21
2017-08-25T10:23:09.962Z,992.23
2017-08-25T10:24:09.966Z,992.16
2017-08-25T10:25:10.493Z,992.26
2017-08-25T10:26:09.989Z,992.15
2017-08-25T10:27:09.986Z,992.16
2017-08-25T10:28:09.992Z,992.15
2017-08-25T10:29:09.997Z,992.1
2017-08-25T10:30:10.447Z,992.08
2017-08-25T10:31:10.011Z,992.12
2017-08-25T10:32:10.016Z,992.11
2017-08-25T10:33:10.022Z,992.07
2017-08-25T10:34:10.028Z,992.09
2017-08-25T10:35:10.500Z,992.07
2017-08-25T10:36:10.044Z,992.07
2017-08-25T10:37:10.046Z,992.05
2017-08-25T10:38:10.102Z,992.06
2017-08-25T10:39:10.060Z,992
2017-08-25T10:40:10.521Z,991.96
2017-08-25T10:41:10.076Z,991.99
2017-08-25T10:42:10.077Z,991.97
2017-08-25T10:43:10.082Z,991.99
2017-08-25T10:44:10.089Z,991.99
2017-08-25T10:45:10.552Z,992.02
2017-08-25T10:46:10.103Z,991.95
2017-08-25T10:47:10.108Z,991.96
2017-08-25T10:48:10.113Z,991.95
2017-08-25T10:49:10.120Z,991.92
2017-08-25T10:50:10.608Z,991.91
2017-08-25T10:51:10.132Z,991.92
2017-08-25T10:52:10.139Z,991.86
2017-08-25T10:53:10.945Z,991.87
2017-08-25T10:54:10.152Z,991.87
2017-08-25T10:55:10.634Z,991.89
2017-08-25T10:56:10.164Z,991.9
2017-08-25T10:57:10.170Z,991.88
2017-08-25T10:58:10.177Z,991.9
2017-08-25T10:59:10.183Z,991.89
2017-08-25T11:00:10.654Z,991.89
2017-08-25T11:01:10.471Z,991.81
2017-08-25T11:02:10.201Z,991.8
2017-08-25T11:03:10.213Z,991.82
2017-08-25T11:04:10.216Z,991.74
2017-08-25T11:05:10.693Z,991.74
2017-08-25T11:06:10.226Z,991.77
2017-08-25T11:07:10.233Z,991.74
2017-08-25T11:08:10.240Z,991.72
2017-08-25T11:09:10.244Z,991.73
2017-08-25T11:10:10.793Z,991.69
2017-08-25T11:11:10.260Z,991.7
2017-08-25T11:12:10.264Z,991.69
2017-08-25T11:13:10.270Z,991.73
2017-08-25T11:14:10.276Z,991.72
2017-08-25T11:15:10.797Z,991.73
2017-08-25T11:16:10.289Z,991.71
2017-08-25T11:17:10.294Z,991.76
2017-08-25T11:18:10.302Z,991.73
2017-08-25T11:19:10.311Z,991.77
2017-08-25T11:20:10.873Z,991.8
2017-08-25T11:21:10.321Z,991.79
2017-08-25T11:22:10.327Z,991.78
2017-08-25T11:23:10.334Z,991.8
2017-08-25T11:24:10.339Z,991.84
2017-08-25T11:25:10.864Z,991.85
2017-08-25T11:26:10.354Z,991.86
2017-08-25T11:27:10.359Z,991.81
2017-08-25T11:28:10.365Z,991.88
2017-08-25T11:29:10.372Z,991.87
2017-08-25T11:30:10.924Z,991.85
2017-08-25T11:31:10.384Z,991.84
2017-08-25T11:32:10.391Z,991.83
2017-08-25T11:33:10.398Z,991.8
2017-08-25T11:34:10.413Z,991.78
2017-08-25T11:35:10.933Z,991.73
2017-08-25T11:36:10.421Z,991.75
2017-08-25T11:37:10.423Z,991.73
2017-08-25T11:38:10.429Z,991.7
2017-08-25T11:39:10.437Z,991.72
2017-08-25T11:40:11.006Z,991.67
2017-08-25T11:41:10.451Z,991.69
2017-08-25T11:42:10.457Z,991.69
2017-08-25T11:43:10.463Z,991.67
2017-08-25T11:44:10.470Z,991.63
2017-08-25T11:45:11.008Z,991.62
2017-08-25T11:46:10.483Z,991.63
2017-08-25T11:47:10.490Z,991.61
2017-08-25T11:48:10.497Z,991.6
2017-08-25T11:49:10.502Z,991.56
2017-08-25T11:50:11.042Z,991.55
2017-08-25T11:51:10.516Z,991.58
2017-08-25T11:52:10.521Z,991.56
2017-08-25T11:53:10.528Z,991.57
2017-08-25T11:54:10.534Z,991.52
2017-08-25T11:55:11.043Z,991.53
2017-08-25T11:56:10.548Z,991.55
2017-08-25T11:57:10.556Z,991.52
2017-08-25T11:58:10.562Z,991.51
2017-08-25T11:59:10.572Z,991.57
2017-08-25T12:00:11.133Z,991.54
2017-08-25T12:01:10.582Z,991.54
2017-08-25T12:02:10.588Z,991.51
2017-08-25T12:03:10.595Z,991.54
2017-08-25T12:04:10.602Z,991.54
2017-08-25T12:05:11.015Z,991.52
2017-08-25T12:06:10.616Z,991.44
2017-08-25T12:07:10.621Z,991.46
2017-08-25T12:08:10.629Z,991.49
2017-08-25T12:09:10.634Z,991.44
2017-08-25T12:10:11.251Z,991.43
2017-08-25T12:11:10.646Z,991.44
2017-08-25T12:12:10.653Z,991.33
2017-08-25T12:13:10.658Z,991.3
2017-08-25T12:14:10.668Z,991.35
2017-08-25T12:15:11.210Z,991.29
2017-08-25T12:16:10.680Z,991.35
2017-08-25T12:17:10.685Z,991.32
2017-08-25T12:18:10.695Z,991.35
2017-08-25T12:19:10.697Z,991.31
2017-08-25T12:20:11.271Z,991.32
2017-08-25T12:21:10.712Z,991.33
2017-08-25T12:22:10.720Z,991.35
2017-08-25T12:23:10.725Z,991.34
2017-08-25T12:24:10.932Z,991.31
2017-08-25T12:25:11.308Z,991.33
2017-08-25T12:26:10.748Z,991.34
2017-08-25T12:27:10.751Z,991.29
2017-08-25T12:28:10.758Z,991.35
2017-08-25T12:29:10.770Z,991.26
2017-08-25T12:30:11.333Z,991.28